createdAt,value
2019-03-05T00:00:20.579Z,51.03
2019-03-05T00:01:20.746Z,51.51
2019-03-05T00:02:20.923Z,53.22
2019-03-05T00:03:21.101Z,50.05
2019-03-05T00:04:21.272Z,51.51
2019-03-05T00:05:21.438Z,58.35
2019-03-05T00:06:21.615Z,67.38
2019-03-05T00:07:21.791Z,56.15
2019-03-05T00:08:21.960Z,49.07
2019-03-05T00:09:22.137Z,49.32
2019-03-05T00:10:22.314Z,50.78
2019-03-05T00:11:22.490Z,53.22
2019-03-05T00:12:22.657Z,55.66
2019-03-05T00:13:22.830Z,68.60
2019-03-05T00:14:23.004Z,54.69
2019-03-05T00:15:23.173Z,60.30
2019-03-05T00:16:23.346Z,54.69
2019-03-05T00:17:23.522Z,56.15
2019-03-05T00:18:23.695Z,55.66
2019-03-05T00:19:23.867Z,54.44
2019-03-05T00:20:24.043Z,53.96
2019-03-05T00:21:24.226Z,57.13
2019-03-05T00:22:24.390Z,54.20
2019-03-05T00:23:24.562Z,54.20
2019-03-05T00:24:24.738Z,52.49
2019-03-05T00:25:24.922Z,52.98
2019-03-05T00:26:25.084Z,51.51
2019-03-05T00:27:25.258Z,52.73
2019-03-05T00:28:25.438Z,52.25
2019-03-05T00:29:25.601Z,51.51
2019-03-05T00:30:25.775Z,50.29
2019-03-05T00:31:25.948Z,50.78
2019-03-05T00:32:26.121Z,52.25
2019-03-05T00:33:26.300Z,59.81
2019-03-05T00:34:26.468Z,49.07
2019-03-05T00:35:26.631Z,50.29
2019-03-05T00:36:26.808Z,56.64
2019-03-05T00:37:26.984Z,58.84
2019-03-05T00:38:27.166Z,50.05
2019-03-05T00:39:27.331Z,49.07
2019-03-05T00:40:27.516Z,52.98
2019-03-05T00:41:27.690Z,57.13
2019-03-05T00:42:27.879Z,56.88
2019-03-05T00:43:28.041Z,54.69
2019-03-05T00:44:28.213Z,52.49
2019-03-05T00:45:28.367Z,56.88
2019-03-05T00:46:28.539Z,55.66
2019-03-05T00:47:28.713Z,54.69
2019-03-05T00:48:28.875Z,59.57
2019-03-05T00:49:29.059Z,51.76
2019-03-05T00:50:29.230Z,54.44
2019-03-05T00:51:29.409Z,54.20
2019-03-05T00:52:29.577Z,58.35
2019-03-05T00:53:29.758Z,62.99
2019-03-05T00:54:29.931Z,68.85
2019-03-05T00:55:30.110Z,57.86
2019-03-05T00:56:30.272Z,58.35
2019-03-05T00:57:30.451Z,52.98
2019-03-05T00:58:30.618Z,63.23
2019-03-05T00:59:30.792Z,49.07
2019-03-05T01:00:30.973Z,52.00
2019-03-05T01:01:31.139Z,50.05
2019-03-05T01:02:31.308Z,62.01
2019-03-05T01:03:31.493Z,52.25
2019-03-05T01:04:31.761Z,51.51
2019-03-05T01:06:31.997Z,53.47
2019-03-05T01:07:32.231Z,58.84
2019-03-05T01:08:32.346Z,51.27
2019-03-05T01:10:32.688Z,55.66
2019-03-05T01:11:32.861Z,50.05
2019-03-05T01:12:33.033Z,50.54
2019-03-05T01:13:33.210Z,49.80
2019-03-05T01:14:33.389Z,50.54
2019-03-05T01:16:33.724Z,58.35
2019-03-05T01:17:33.900Z,55.91
2019-03-05T01:18:34.074Z,62.26
2019-03-05T01:19:34.243Z,51.27
2019-03-05T01:20:34.417Z,58.35
2019-03-05T01:21:34.589Z,54.69
2019-03-05T01:22:34.772Z,57.62
2019-03-05T01:23:34.943Z,52.49
2019-03-05T01:24:35.107Z,50.78
2019-03-05T01:25:35.279Z,60.06
2019-03-05T01:26:35.452Z,49.56
2019-03-05T01:27:35.623Z,51.03
2019-03-05T01:28:35.795Z,55.91
2019-03-05T01:29:35.973Z,50.54
2019-03-05T01:30:36.146Z,50.78
2019-03-05T01:31:36.335Z,51.27
2019-03-05T01:32:36.485Z,51.76
2019-03-05T01:34:36.826Z,49.56
2019-03-05T01:35:36.998Z,59.08
2019-03-05T01:36:37.175Z,52.73
2019-03-05T01:37:37.337Z,56.15
2019-03-05T01:38:37.513Z,56.88
2019-03-05T01:39:37.681Z,63.96
2019-03-05T01:40:37.867Z,63.48
2019-03-05T01:41:38.025Z,74.46
2019-03-05T01:42:38.204Z,73.97
2019-03-05T01:43:38.367Z,69.34
2019-03-05T01:44:38.541Z,72.51
2019-03-05T01:45:38.710Z,68.36
2019-03-05T01:46:38.885Z,59.33
2019-03-05T01:47:39.059Z,55.66
2019-03-05T01:48:39.232Z,49.56
2019-03-05T01:49:39.402Z,50.29
2019-03-05T01:50:39.579Z,65.19
2019-03-05T01:51:39.753Z,64.94
2019-03-05T01:52:39.921Z,62.01
2019-03-05T01:53:40.096Z,64.45
2019-03-05T01:54:40.267Z,51.51
2019-03-05T01:55:40.447Z,49.80
2019-03-05T01:56:40.615Z,50.78
2019-03-05T01:57:40.786Z,50.05
2019-03-05T01:58:40.966Z,50.54
2019-03-05T01:59:41.142Z,49.80
2019-03-05T02:00:41.314Z,51.27
2019-03-05T02:01:41.490Z,50.78
2019-03-05T02:02:41.668Z,61.04
2019-03-05T02:03:41.828Z,62.50
2019-03-05T02:04:42.004Z,64.94
2019-03-05T02:05:42.181Z,60.55
2019-03-05T02:06:42.352Z,59.81
2019-03-05T02:07:42.528Z,63.48
2019-03-05T02:08:42.704Z,68.12
2019-03-05T02:09:42.877Z,75.68
2019-03-05T02:10:43.048Z,68.60
2019-03-05T02:11:43.219Z,67.63
2019-03-05T02:12:43.390Z,67.63
2019-03-05T02:13:43.565Z,66.16
2019-03-05T02:14:43.737Z,71.78
2019-03-05T02:15:43.906Z,57.37
2019-03-05T02:16:44.081Z,53.71
2019-03-05T02:17:44.246Z,49.80
2019-03-05T02:18:44.426Z,48.58
2019-03-05T02:19:44.592Z,49.07
2019-03-05T02:20:44.771Z,52.00
2019-03-05T02:21:44.943Z,52.73
2019-03-05T02:22:45.112Z,50.29
2019-03-05T02:23:45.296Z,60.79
2019-03-05T02:24:45.456Z,49.56
2019-03-05T02:25:45.625Z,60.30
2019-03-05T02:26:45.801Z,61.28
2019-03-05T02:27:45.976Z,60.55
2019-03-05T02:28:46.147Z,50.29
2019-03-05T02:29:46.325Z,49.07
2019-03-05T02:30:46.491Z,49.80
2019-03-05T02:31:46.669Z,52.00
2019-03-05T02:32:46.838Z,52.00
2019-03-05T02:33:47.006Z,59.08
2019-03-05T02:34:47.172Z,57.62
2019-03-05T02:35:47.348Z,57.13
2019-03-05T02:36:47.520Z,56.64
2019-03-05T02:37:47.694Z,55.42
2019-03-05T02:38:47.870Z,58.84
2019-03-05T02:39:48.041Z,68.85
2019-03-05T02:40:48.217Z,57.37
2019-03-05T02:41:48.387Z,56.64
2019-03-05T02:42:48.566Z,58.11
2019-03-05T02:43:48.726Z,56.40
2019-03-05T02:44:48.914Z,55.91
2019-03-05T02:45:49.070Z,55.18
2019-03-05T02:46:49.246Z,58.84
2019-03-05T02:47:49.411Z,60.30
2019-03-05T02:48:49.589Z,57.37
2019-03-05T02:49:49.776Z,49.80
2019-03-05T02:50:49.943Z,51.03
2019-03-05T02:51:50.211Z,52.98
2019-03-05T02:52:50.291Z,49.80
2019-03-05T02:53:50.460Z,59.33
2019-03-05T02:54:50.627Z,52.00
2019-03-05T02:55:50.798Z,51.76
2019-03-05T02:56:50.972Z,58.84
2019-03-05T02:57:51.152Z,57.62
2019-03-05T02:58:51.312Z,48.34
2019-03-05T02:59:51.486Z,50.29
2019-03-05T03:00:51.664Z,48.83
2019-03-05T03:01:51.832Z,56.15
2019-03-05T03:02:52.016Z,52.49
2019-03-05T03:03:52.183Z,55.66
2019-03-05T03:04:52.448Z,55.91
2019-03-05T03:05:52.527Z,60.55
2019-03-05T03:06:52.707Z,56.15
2019-03-05T03:07:52.872Z,52.25
2019-03-05T03:08:53.045Z,57.62
2019-03-05T03:09:53.229Z,55.18
2019-03-05T03:10:53.389Z,54.44
2019-03-05T03:11:53.566Z,63.48
2019-03-05T03:12:53.746Z,64.45
2019-03-05T03:13:53.913Z,57.86
2019-03-05T03:14:54.083Z,48.10
2019-03-05T03:15:54.256Z,48.10
2019-03-05T03:16:54.430Z,54.20
2019-03-05T03:17:54.607Z,65.43
2019-03-05T03:18:54.775Z,53.22
2019-03-05T03:19:54.954Z,52.73
2019-03-05T03:20:55.123Z,50.78
2019-03-05T03:21:55.303Z,51.76
2019-03-05T03:22:55.469Z,60.55
2019-03-05T03:23:55.645Z,52.25
2019-03-05T03:24:55.811Z,53.47
2019-03-05T03:25:55.987Z,55.18
2019-03-05T03:26:56.170Z,53.71
2019-03-05T03:27:56.351Z,55.91
2019-03-05T03:28:56.503Z,65.43
2019-03-05T03:29:56.677Z,56.40
2019-03-05T03:30:56.854Z,57.62
2019-03-05T03:31:57.033Z,54.93
2019-03-05T03:32:57.201Z,59.81
2019-03-05T03:33:57.373Z,59.33
2019-03-05T03:34:57.559Z,52.49
2019-03-05T03:35:57.729Z,52.00
2019-03-05T03:36:57.899Z,55.66
2019-03-05T03:37:58.061Z,56.64
2019-03-05T03:38:58.238Z,56.64
2019-03-05T03:39:58.410Z,55.18
2019-03-05T03:40:58.584Z,55.18
2019-03-05T03:41:58.769Z,68.12
2019-03-05T03:42:58.957Z,56.15
2019-03-05T03:43:59.114Z,59.81
2019-03-05T03:44:59.289Z,58.35
2019-03-05T03:45:59.468Z,57.37
2019-03-05T03:46:59.641Z,58.84
2019-03-05T03:47:59.802Z,58.59
2019-03-05T03:48:59.977Z,73.24
2019-03-05T03:50:00.507Z,63.96
2019-03-05T03:51:00.322Z,62.99
2019-03-05T03:52:00.504Z,56.64
2019-03-05T03:53:00.675Z,58.84
2019-03-05T03:54:00.840Z,58.35
2019-03-05T03:55:01.014Z,58.84
2019-03-05T03:56:01.237Z,69.58
2019-03-05T03:57:01.350Z,69.09
2019-03-05T03:58:01.533Z,52.73
2019-03-05T03:59:01.698Z,60.55
2019-03-05T04:00:01.869Z,52.98
2019-03-05T04:01:02.048Z,50.54
2019-03-05T04:02:02.218Z,51.76
2019-03-05T04:03:02.399Z,50.54
2019-03-05T04:04:02.574Z,51.03
2019-03-05T04:05:02.764Z,49.07
2019-03-05T04:06:02.919Z,58.84
2019-03-05T04:07:03.124Z,57.62
2019-03-05T04:08:03.822Z,56.15
2019-03-05T04:09:03.490Z,58.84
2019-03-05T04:10:03.661Z,60.30
2019-03-05T04:11:03.840Z,60.30
2019-03-05T04:12:03.981Z,58.59
2019-03-05T04:13:04.159Z,59.08
2019-03-05T04:14:04.348Z,58.35
2019-03-05T04:15:04.515Z,58.59
2019-03-05T04:16:04.694Z,58.35
2019-03-05T04:17:04.863Z,58.84
2019-03-05T04:18:05.032Z,59.08
2019-03-05T04:19:05.204Z,60.79
2019-03-05T04:20:05.379Z,61.04
2019-03-05T04:21:05.550Z,59.08
2019-03-05T04:22:05.727Z,58.59
2019-03-05T04:23:05.906Z,50.29
2019-03-05T04:24:06.077Z,59.08
2019-03-05T04:25:06.254Z,58.11
2019-03-05T04:26:06.421Z,51.51
2019-03-05T04:27:06.596Z,51.51
2019-03-05T04:28:06.763Z,52.73
2019-03-05T04:29:06.935Z,60.30
2019-03-05T04:30:07.116Z,53.71
2019-03-05T04:31:07.280Z,52.00
2019-03-05T04:32:07.456Z,61.28
2019-03-05T04:33:07.628Z,58.84
2019-03-05T04:34:07.803Z,74.95
2019-03-05T04:35:07.973Z,63.48
2019-03-05T04:36:08.151Z,55.42
2019-03-05T04:37:08.319Z,56.15
2019-03-05T04:38:08.503Z,55.91
2019-03-05T04:39:08.668Z,51.76
2019-03-05T04:40:08.838Z,53.71
2019-03-05T04:41:09.016Z,58.35
2019-03-05T04:42:09.183Z,58.11
2019-03-05T04:43:09.366Z,54.20
2019-03-05T04:44:09.531Z,61.28
2019-03-05T04:45:09.711Z,62.26
2019-03-05T04:46:09.875Z,55.66
2019-03-05T04:47:10.049Z,53.22
2019-03-05T04:48:10.215Z,66.65
2019-03-05T04:49:10.388Z,55.18
2019-03-05T04:50:10.567Z,54.20
2019-03-05T04:51:10.739Z,57.86
2019-03-05T04:52:10.907Z,54.20
2019-03-05T04:53:11.083Z,62.26
2019-03-05T04:54:11.253Z,58.11
2019-03-05T04:55:11.423Z,70.07
2019-03-05T04:56:11.593Z,60.79
2019-03-05T04:57:11.767Z,74.95
2019-03-05T04:58:11.941Z,54.69
2019-03-05T04:59:12.113Z,52.25
2019-03-05T05:00:12.286Z,73.73
2019-03-05T05:01:12.446Z,68.85
2019-03-05T05:02:12.620Z,59.81
2019-03-05T05:03:12.788Z,58.84
2019-03-05T05:04:12.968Z,60.30
2019-03-05T05:05:13.134Z,58.35
2019-03-05T05:06:13.313Z,71.53
2019-03-05T05:07:13.483Z,60.30
2019-03-05T05:08:13.653Z,64.70
2019-03-05T05:09:13.830Z,68.60
2019-03-05T05:10:14.001Z,61.52
2019-03-05T05:11:14.182Z,69.82
2019-03-05T05:12:14.344Z,55.66
2019-03-05T05:13:14.685Z,58.59
2019-03-05T05:14:14.774Z,58.84
2019-03-05T05:15:15.566Z,71.29
2019-03-05T05:16:15.014Z,59.08
2019-03-05T05:17:15.173Z,62.50
2019-03-05T05:18:15.351Z,67.63
2019-03-05T05:19:15.526Z,68.60
2019-03-05T05:20:15.705Z,63.23
2019-03-05T05:21:15.881Z,57.86
2019-03-05T05:22:16.051Z,84.23
2019-03-05T05:23:16.235Z,85.21
2019-03-05T05:24:16.397Z,83.74
2019-03-05T05:25:16.570Z,70.07
2019-03-05T05:26:17.809Z,74.95
2019-03-05T05:27:16.919Z,72.02
2019-03-05T05:28:17.092Z,85.94
2019-03-05T05:29:17.268Z,87.16
2019-03-05T05:30:17.436Z,73.24
2019-03-05T05:31:17.616Z,72.51
2019-03-05T05:32:17.787Z,80.32
2019-03-05T05:33:17.958Z,77.39
2019-03-05T05:34:18.153Z,78.37
2019-03-05T05:35:18.314Z,79.35
2019-03-05T05:36:18.492Z,78.37
2019-03-05T05:37:18.659Z,63.72
2019-03-05T05:38:18.840Z,63.96
2019-03-05T05:39:19.007Z,73.73
2019-03-05T05:40:19.177Z,79.35
2019-03-05T05:41:19.350Z,74.95
2019-03-05T05:42:19.532Z,79.59
2019-03-05T05:43:19.699Z,79.10
2019-03-05T05:44:19.874Z,74.46
2019-03-05T05:45:20.047Z,88.38
2019-03-05T05:46:20.218Z,74.71
2019-03-05T05:47:20.395Z,69.09
2019-03-05T05:48:20.565Z,74.95
2019-03-05T05:49:20.736Z,68.60
2019-03-05T05:50:20.914Z,72.75
2019-03-05T05:51:21.092Z,62.26
2019-03-05T05:52:21.266Z,73.00
2019-03-05T05:53:21.449Z,72.27
2019-03-05T05:54:21.603Z,56.64
2019-03-05T05:55:21.774Z,57.86
2019-03-05T05:56:21.962Z,60.06
2019-03-05T05:57:22.121Z,69.58
2019-03-05T05:58:22.296Z,70.07
2019-03-05T05:59:22.472Z,68.12
2019-03-05T06:00:22.642Z,70.80
2019-03-05T06:01:22.817Z,80.57
2019-03-05T06:02:22.989Z,82.52
2019-03-05T06:03:23.164Z,90.33
2019-03-05T06:04:23.337Z,81.79
2019-03-05T06:05:23.511Z,83.74
2019-03-05T06:06:23.681Z,81.30
2019-03-05T06:07:23.858Z,78.13
2019-03-05T06:08:24.026Z,63.72
2019-03-05T06:09:24.202Z,61.77
2019-03-05T06:10:24.374Z,67.87
2019-03-05T06:11:24.558Z,78.61
2019-03-05T06:12:24.716Z,63.72
2019-03-05T06:13:24.889Z,63.96
2019-03-05T06:14:25.063Z,69.58
2019-03-05T06:15:25.243Z,66.89
2019-03-05T06:16:25.427Z,67.87
2019-03-05T06:17:25.599Z,69.34
2019-03-05T06:18:25.776Z,67.63
2019-03-05T06:22:58.386Z,68.12
2019-03-05T06:23:58.555Z,69.09
2019-03-05T06:24:58.735Z,70.07
2019-03-05T06:25:59.764Z,61.04
2019-03-05T06:26:59.050Z,55.66
2019-03-05T06:27:59.224Z,58.35
2019-03-05T06:28:59.399Z,64.21
2019-03-05T06:29:59.578Z,69.34
2019-03-05T06:30:59.749Z,73.49
2019-03-05T06:31:59.924Z,65.67
2019-03-05T06:33:00.094Z,69.58
2019-03-05T06:34:00.268Z,81.54
2019-03-05T06:35:00.436Z,67.63
2019-03-05T06:36:00.614Z,67.63
2019-03-05T06:37:00.783Z,69.09
2019-03-05T06:38:00.973Z,66.16
2019-03-05T06:39:01.146Z,67.63
2019-03-05T06:40:01.330Z,72.75
2019-03-05T06:41:01.493Z,67.87
2019-03-05T06:42:01.672Z,71.78
2019-03-05T06:43:01.850Z,71.29
2019-03-05T06:44:02.034Z,74.71
2019-03-05T06:45:02.193Z,77.64
2019-03-05T06:46:02.367Z,81.79
2019-03-05T06:47:02.551Z,83.01
2019-03-05T06:48:03.717Z,83.25
2019-03-05T06:49:02.882Z,81.05
2019-03-05T06:50:03.059Z,70.56
2019-03-05T06:51:03.232Z,70.80
2019-03-05T06:52:03.442Z,76.90
2019-03-05T06:53:03.588Z,76.42
2019-03-05T06:54:03.759Z,76.90
2019-03-05T06:55:03.933Z,76.66
2019-03-05T06:56:04.107Z,79.59
2019-03-05T06:57:04.281Z,77.39
2019-03-05T06:58:04.489Z,64.21
2019-03-05T06:59:04.664Z,68.36
2019-03-05T07:00:04.847Z,71.78
2019-03-05T07:01:05.025Z,69.58
2019-03-05T07:02:05.182Z,66.16
2019-03-05T07:03:05.367Z,66.65
2019-03-05T07:04:05.534Z,77.88
2019-03-05T07:05:05.707Z,63.72
2019-03-05T07:06:05.877Z,63.72
2019-03-05T07:07:06.049Z,71.04
2019-03-05T07:08:06.219Z,66.89
2019-03-05T07:09:06.394Z,67.63
2019-03-05T07:10:06.565Z,62.74
2019-03-05T07:11:06.738Z,71.04
2019-03-05T07:12:06.904Z,82.28
2019-03-05T07:13:07.083Z,68.12
2019-03-05T07:14:07.458Z,67.14
2019-03-05T07:15:07.552Z,68.60
2019-03-05T07:16:07.620Z,65.92
2019-03-05T07:17:07.754Z,68.36
2019-03-05T07:18:07.920Z,64.94
2019-03-05T07:19:08.122Z,65.19
2019-03-05T07:20:08.247Z,69.09
2019-03-05T07:21:08.427Z,60.30
2019-03-05T07:22:08.605Z,58.11
2019-03-05T07:23:08.778Z,61.52
2019-03-05T07:24:08.955Z,71.04
2019-03-05T07:25:09.130Z,71.04
2019-03-05T07:26:09.310Z,59.57
2019-03-05T07:27:09.477Z,61.52
2019-03-05T07:28:09.652Z,60.55
2019-03-05T07:29:09.834Z,66.89
2019-03-05T07:30:10.005Z,69.82
2019-03-05T07:31:10.176Z,69.58
2019-03-05T07:32:10.358Z,64.45
2019-03-05T07:33:10.523Z,70.31
2019-03-05T07:34:10.711Z,67.63
2019-03-05T07:35:10.890Z,62.01
2019-03-05T07:36:11.065Z,61.77
2019-03-05T07:37:11.233Z,63.96
2019-03-05T07:38:11.416Z,65.92
2019-03-05T07:39:11.590Z,64.70
2019-03-05T07:40:11.763Z,63.96
2019-03-05T07:41:11.935Z,63.23
2019-03-05T07:42:12.113Z,71.53
2019-03-05T07:43:12.286Z,61.04
2019-03-05T07:44:12.459Z,60.30
2019-03-05T07:45:12.643Z,68.60
2019-03-05T07:46:12.804Z,68.36
2019-03-05T07:47:12.979Z,61.77
2019-03-05T07:48:13.158Z,63.48
2019-03-05T07:49:13.326Z,59.81
2019-03-05T07:50:13.520Z,60.30
2019-03-05T07:51:13.687Z,65.92
2019-03-05T07:52:13.872Z,62.26
2019-03-05T07:53:14.041Z,62.74
2019-03-05T07:54:14.283Z,66.41
2019-03-05T07:55:14.443Z,63.23
2019-03-05T07:56:14.564Z,66.16
2019-03-05T07:57:14.707Z,65.92
2019-03-05T07:58:14.903Z,65.92
2019-03-05T07:59:15.037Z,63.96
2019-03-05T08:00:15.238Z,68.12
2019-03-05T08:01:22.218Z,67.38
2019-03-05T08:02:15.535Z,71.78
2019-03-05T08:03:15.710Z,73.97
2019-03-05T08:04:15.873Z,74.22
2019-03-05T08:05:16.071Z,71.04
2019-03-05T08:06:16.219Z,69.34
2019-03-05T08:07:16.396Z,65.92
2019-03-05T08:08:26.428Z,58.84
2019-03-05T08:09:16.747Z,76.17
2019-03-05T08:10:16.922Z,69.09
2019-03-05T08:11:17.117Z,67.63
2019-03-05T08:12:17.269Z,56.40
2019-03-05T08:13:17.454Z,73.97
2019-03-05T08:14:17.614Z,72.75
2019-03-05T08:15:17.772Z,76.42
2019-03-05T08:16:17.966Z,72.75
2019-03-05T08:17:18.110Z,71.78
2019-03-05T08:18:18.294Z,70.80
2019-03-05T08:19:18.443Z,76.42
2019-03-05T08:20:18.622Z,73.24
2019-03-05T08:21:18.786Z,76.17
2019-03-05T08:22:18.966Z,76.17
2019-03-05T08:23:19.126Z,77.15
2019-03-05T08:24:19.292Z,74.71
2019-03-05T08:25:19.459Z,76.66
2019-03-05T08:26:19.625Z,75.44
2019-03-05T08:27:19.781Z,67.14
2019-03-05T08:28:19.961Z,67.14
2019-03-05T08:29:20.142Z,69.09
2019-03-05T08:30:20.299Z,70.07
2019-03-05T08:31:20.467Z,72.27
2019-03-05T08:32:20.643Z,62.26
2019-03-05T08:33:20.806Z,66.65
2019-03-05T08:34:21.024Z,66.16
2019-03-05T08:35:21.189Z,64.45
2019-03-05T08:36:21.377Z,62.99
2019-03-05T08:37:21.511Z,73.49
2019-03-05T08:38:21.701Z,72.51
2019-03-05T08:39:21.863Z,76.90
2019-03-05T08:41:22.152Z,60.06
2019-03-05T08:42:22.333Z,59.08
2019-03-05T08:43:22.514Z,74.46
2019-03-05T08:44:22.687Z,69.09
2019-03-05T08:45:29.220Z,73.49
2019-03-05T08:46:23.017Z,74.46
2019-03-05T08:47:23.146Z,78.37
2019-03-05T08:48:23.345Z,63.48
2019-03-05T08:49:23.466Z,62.50
2019-03-05T08:50:23.664Z,66.89
2019-03-05T08:51:23.838Z,60.30
2019-03-05T08:52:24.035Z,61.04
2019-03-05T08:53:24.215Z,63.23
2019-03-05T08:54:24.370Z,69.34
2019-03-05T08:55:24.544Z,67.87
2019-03-05T08:56:24.734Z,66.89
2019-03-05T08:57:24.895Z,60.55
2019-03-05T08:58:25.038Z,66.89
2019-03-05T08:59:25.219Z,63.72
2019-03-05T09:00:25.384Z,73.97
2019-03-05T09:01:25.533Z,75.20
2019-03-05T09:02:25.693Z,65.19
2019-03-05T09:03:25.870Z,73.24
2019-03-05T09:04:26.017Z,70.07
2019-03-05T09:05:26.196Z,62.26
2019-03-05T09:06:26.356Z,66.65
2019-03-05T09:07:27.274Z,68.60
2019-03-05T09:08:26.724Z,58.84
2019-03-05T09:09:26.917Z,63.48
2019-03-05T09:10:27.059Z,61.28
2019-03-05T09:11:27.242Z,62.26
2019-03-05T09:12:27.424Z,62.74
2019-03-05T09:13:32.551Z,72.75
2019-03-05T09:14:27.717Z,73.49
2019-03-05T09:15:27.888Z,68.85
2019-03-05T09:16:28.044Z,65.43
2019-03-05T09:17:28.230Z,67.14
2019-03-05T09:18:28.411Z,63.72
2019-03-05T09:19:28.589Z,62.74
2019-03-05T09:20:28.751Z,67.63
2019-03-05T09:21:28.966Z,70.56
2019-03-05T09:22:29.094Z,66.65
2019-03-05T09:23:29.283Z,62.74
2019-03-05T09:24:29.429Z,61.52
2019-03-05T09:25:29.602Z,62.74
2019-03-05T09:26:29.753Z,67.38
2019-03-05T09:27:29.925Z,67.63
2019-03-05T09:28:30.063Z,63.96
2019-03-05T09:29:30.228Z,64.21
2019-03-05T09:30:30.392Z,67.63
2019-03-05T09:31:30.560Z,72.27
2019-03-05T09:32:30.725Z,61.77
2019-03-05T09:33:30.891Z,62.99
2019-03-05T09:34:31.072Z,63.23
2019-03-05T09:35:31.194Z,67.14
2019-03-05T09:36:31.359Z,68.12
2019-03-05T09:37:31.571Z,69.58
2019-03-05T09:38:31.678Z,63.48
2019-03-05T09:39:31.867Z,59.57
2019-03-05T09:40:32.009Z,64.21
2019-03-05T09:41:32.175Z,92.04
2019-03-05T09:42:39.764Z,65.43
2019-03-05T09:43:32.555Z,67.87
2019-03-05T09:44:32.621Z,64.45
2019-03-05T09:45:32.811Z,71.29
2019-03-05T09:46:32.953Z,66.65
2019-03-05T09:47:33.137Z,68.36
2019-03-05T09:48:33.294Z,62.01
2019-03-05T09:49:33.474Z,63.72
2019-03-05T09:50:33.657Z,60.30
2019-03-05T09:51:33.821Z,71.29
2019-03-05T09:52:33.988Z,60.55
2019-03-05T09:53:34.160Z,63.48
2019-03-05T09:54:34.336Z,68.12
2019-03-05T09:55:34.513Z,59.33
2019-03-05T09:56:34.686Z,61.52
2019-03-05T09:57:34.863Z,64.45
2019-03-05T09:58:35.026Z,62.74
2019-03-05T09:59:35.202Z,59.81
2019-03-05T10:00:35.376Z,71.78
2019-03-05T10:01:35.545Z,61.28
2019-03-05T10:02:35.723Z,68.60
2019-03-05T10:03:35.908Z,63.23
2019-03-05T10:04:36.068Z,63.72
2019-03-05T10:05:36.228Z,70.56
2019-03-05T10:06:36.400Z,60.30
2019-03-05T10:07:36.580Z,59.81
2019-03-05T10:08:36.755Z,63.96
2019-03-05T10:09:36.927Z,66.65
2019-03-05T10:10:37.116Z,68.12
2019-03-05T10:11:37.285Z,62.50
2019-03-05T10:12:37.463Z,65.43
2019-03-05T10:13:37.647Z,62.26
2019-03-05T10:14:37.818Z,61.77
2019-03-05T10:15:38.007Z,66.65
2019-03-05T10:16:38.167Z,62.99
2019-03-05T10:17:38.419Z,63.23
2019-03-05T10:18:39.374Z,61.77
2019-03-05T10:19:38.692Z,65.19
2019-03-05T10:20:38.856Z,60.55
2019-03-05T10:21:46.213Z,62.01
2019-03-05T10:22:39.222Z,63.23
2019-03-05T10:23:39.409Z,70.31
2019-03-05T10:24:39.579Z,66.89
2019-03-05T10:25:39.747Z,62.50
2019-03-05T10:26:39.904Z,61.52
2019-03-05T10:27:40.081Z,68.36
2019-03-05T10:28:40.256Z,68.85
2019-03-05T10:29:40.411Z,68.12
2019-03-05T10:30:40.589Z,68.60
2019-03-05T10:31:40.706Z,64.70
2019-03-05T10:32:40.884Z,66.41
2019-03-05T10:33:41.060Z,59.33
2019-03-05T10:34:41.229Z,65.67
2019-03-05T10:35:41.411Z,58.59
2019-03-05T10:36:41.568Z,65.19
2019-03-05T10:37:41.745Z,74.46
2019-03-05T10:38:41.939Z,73.49
2019-03-05T10:39:43.143Z,65.92
2019-03-05T10:40:43.240Z,61.04
2019-03-05T10:41:50.562Z,60.55
2019-03-05T10:42:43.297Z,61.52
2019-03-05T10:47:17.191Z,59.81
2019-03-05T10:48:17.807Z,60.79
2019-03-05T10:49:18.168Z,81.54
2019-03-05T10:50:18.131Z,70.07
2019-03-05T10:51:32.160Z,67.14
2019-03-05T10:52:16.800Z,65.92
2019-03-05T10:53:16.972Z,85.69
2019-03-05T10:54:17.147Z,65.43
2019-03-05T10:55:25.933Z,73.00
2019-03-05T10:56:17.741Z,71.53
2019-03-05T10:57:18.910Z,67.14
2019-03-05T10:58:19.723Z,65.92
2019-03-05T10:59:19.058Z,66.16
2019-03-05T11:00:19.017Z,73.24
2019-03-05T11:01:22.220Z,85.69
2019-03-05T11:02:18.645Z,87.16
2019-03-05T11:03:18.817Z,85.21
2019-03-05T11:04:18.983Z,87.65
2019-03-05T11:05:19.145Z,86.43
2019-03-05T11:06:19.318Z,85.94
2019-03-05T11:07:19.485Z,69.34
2019-03-05T11:08:19.659Z,66.41
2019-03-05T11:09:19.829Z,64.21
2019-03-05T11:10:20.002Z,70.31
2019-03-05T11:11:20.149Z,63.48
2019-03-05T11:12:20.325Z,63.23
2019-03-05T11:13:20.537Z,63.72
2019-03-05T11:14:20.690Z,64.94
2019-03-05T11:15:20.839Z,64.21
2019-03-05T11:16:30.460Z,63.23
2019-03-05T11:17:21.283Z,68.36
2019-03-05T11:18:28.894Z,65.43
2019-03-05T11:19:21.536Z,62.26
2019-03-05T11:20:21.803Z,62.99
2019-03-05T11:21:22.051Z,59.08
2019-03-05T11:22:22.132Z,63.23
2019-03-05T11:23:22.386Z,76.42
2019-03-05T11:24:22.479Z,63.48
2019-03-05T11:25:22.713Z,62.74
2019-03-05T11:26:22.867Z,65.92
2019-03-05T11:27:23.060Z,63.23
2019-03-05T11:28:23.175Z,60.55
2019-03-05T11:29:23.359Z,59.81
2019-03-05T11:30:23.582Z,72.51
2019-03-05T11:31:23.791Z,62.99
2019-03-05T11:32:24.000Z,62.74
2019-03-05T11:33:24.087Z,62.26
2019-03-05T11:34:24.300Z,60.06
2019-03-05T11:35:24.440Z,61.04
2019-03-05T11:36:24.674Z,74.46
2019-03-05T11:37:24.743Z,81.79
2019-03-05T11:38:24.958Z,60.06
2019-03-05T11:39:25.090Z,60.79
2019-03-05T11:40:25.235Z,60.30
2019-03-05T11:41:25.377Z,64.70
2019-03-05T11:42:25.558Z,78.61
2019-03-05T11:43:25.745Z,61.52
2019-03-05T11:44:25.929Z,57.86
2019-03-05T11:45:26.107Z,65.43
2019-03-05T11:46:26.268Z,59.33
2019-03-05T11:47:26.437Z,65.67
2019-03-05T11:48:26.622Z,60.55
2019-03-05T11:49:26.806Z,58.59
2019-03-05T11:50:27.015Z,61.77
2019-03-05T11:51:27.121Z,63.96
2019-03-05T11:52:27.378Z,65.43
2019-03-05T11:53:27.548Z,64.70
2019-03-05T11:54:27.699Z,71.29
2019-03-05T11:55:27.965Z,67.14
2019-03-05T11:56:28.037Z,60.06
2019-03-05T11:57:28.280Z,62.99
2019-03-05T11:58:28.366Z,63.96
2019-03-05T11:59:28.560Z,63.72
2019-03-05T12:00:28.938Z,72.27
2019-03-05T12:01:28.974Z,67.38
2019-03-05T12:02:29.146Z,65.67
2019-03-05T12:03:30.025Z,66.41
2019-03-05T12:04:29.774Z,65.67
2019-03-05T12:05:29.918Z,59.57
2019-03-05T12:06:29.871Z,63.72
2019-03-05T12:07:30.782Z,62.01
2019-03-05T12:08:30.595Z,64.70
2019-03-05T12:09:30.373Z,66.41
2019-03-05T12:10:30.584Z,60.30
2019-03-05T12:11:31.011Z,59.57
2019-03-05T12:12:31.097Z,59.81
2019-03-05T12:13:31.052Z,62.99
2019-03-05T12:14:31.200Z,59.81
2019-03-05T12:15:31.369Z,67.87
2019-03-05T12:16:31.520Z,68.36
2019-03-05T12:17:31.691Z,70.56
2019-03-05T12:18:31.879Z,62.99
2019-03-05T12:19:32.043Z,60.79
2019-03-05T12:20:32.208Z,64.70
2019-03-05T12:21:32.392Z,64.21
2019-03-05T12:22:32.635Z,60.79
2019-03-05T12:23:32.751Z,61.52
2019-03-05T12:24:32.911Z,65.92
2019-03-05T12:25:36.105Z,68.12
2019-03-05T12:26:33.266Z,72.75
2019-03-05T12:27:35.839Z,64.21
2019-03-05T12:28:33.511Z,62.74
2019-03-05T12:29:33.675Z,74.46
2019-03-05T12:30:33.860Z,69.09
2019-03-05T12:31:34.072Z,69.82
2019-03-05T12:32:34.330Z,59.57
2019-03-05T12:33:34.399Z,69.82
2019-03-05T12:34:34.513Z,63.48
2019-03-05T12:35:35.561Z,63.23
2019-03-05T12:36:34.904Z,62.99
2019-03-05T12:37:35.105Z,71.29
2019-03-05T12:38:35.196Z,73.00
2019-03-05T12:39:35.359Z,65.67
2019-03-05T12:40:35.560Z,62.99
2019-03-05T12:41:35.689Z,66.65
2019-03-05T12:42:35.873Z,67.14
2019-03-05T12:43:36.060Z,64.45
2019-03-05T12:44:36.253Z,63.48
2019-03-05T12:45:36.387Z,73.00
2019-03-05T12:46:36.550Z,64.45
2019-03-05T12:47:36.799Z,58.35
2019-03-05T12:48:40.389Z,60.30
2019-03-05T12:49:37.078Z,60.79
2019-03-05T12:50:37.282Z,60.06
2019-03-05T12:51:37.522Z,61.28
2019-03-05T12:52:38.020Z,61.77
2019-03-05T12:53:37.719Z,63.96
2019-03-05T12:54:37.929Z,67.63
2019-03-05T12:55:38.243Z,66.65
2019-03-05T12:56:38.277Z,61.77
2019-03-05T12:57:38.430Z,64.45
2019-03-05T12:58:38.612Z,62.26
2019-03-05T12:59:38.814Z,62.99
2019-03-05T13:00:38.980Z,71.04
2019-03-05T13:01:39.263Z,63.48
2019-03-05T13:02:39.334Z,65.43
2019-03-05T13:03:39.514Z,65.19
2019-03-05T13:04:39.645Z,60.79
2019-03-05T13:05:41.757Z,65.92
2019-03-05T13:06:39.992Z,63.72